sensor_id;sensor_type;location;lat;lon;timestamp;P1;durP1;ratioP1;P2;durP2;ratioP2
26562;SDS011;14217;50.986;5.826;2024-02-26T00:01:18;1.25;;;0.22;;
26562;SDS011;14217;50.986;5.826;2024-02-26T00:06:20;0.22;;;0.10;;
26562;SDS011;14217;50.986;5.826;2024-02-26T00:11:23;0.60;;;0.22;;
26562;SDS011;14217;50.986;5.826;2024-02-26T00:16:25;1.08;;;0.13;;
26562;SDS011;14217;50.986;5.826;2024-02-26T00:21:27;0.40;;;0.30;;
26562;SDS011;14217;50.986;5.826;2024-02-26T00:26:29;0.70;;;0.32;;
26562;SDS011;14217;50.986;5.826;2024-02-26T00:31:31;0.00;;;0.00;;
26562;SDS011;14217;50.986;5.826;2024-02-26T00:36:33;0.28;;;0.10;;
26562;SDS011;14217;50.986;5.826;2024-02-26T00:41:42;0.75;;;0.30;;
26562;SDS011;14217;50.986;5.826;2024-02-26T00:46:44;0.28;;;0.20;;
26562;SDS011;14217;50.986;5.826;2024-02-26T00:51:46;0.20;;;0.20;;
26562;SDS011;14217;50.986;5.826;2024-02-26T00:56:48;0.20;;;0.20;;
26562;SDS011;14217;50.986;5.826;2024-02-26T01:01:50;0.22;;;0.10;;
26562;SDS011;14217;50.986;5.826;2024-02-26T01:06:52;0.38;;;0.20;;
26562;SDS011;14217;50.986;5.826;2024-02-26T01:11:55;0.90;;;0.43;;
26562;SDS011;14217;50.986;5.826;2024-02-26T01:16:57;0.75;;;0.30;;
26562;SDS011;14217;50.986;5.826;2024-02-26T01:21:59;0.35;;;0.25;;
26562;SDS011;14217;50.986;5.826;2024-02-26T01:27:02;0.17;;;0.17;;
26562;SDS011;14217;50.986;5.826;2024-02-26T01:32:04;0.20;;;0.20;;
26562;SDS011;14217;50.986;5.826;2024-02-26T01:37:07;0.43;;;0.10;;
26562;SDS011;14217;50.986;5.826;2024-02-26T01:42:09;1.20;;;0.13;;
26562;SDS011;14217;50.986;5.826;2024-02-26T01:47:11;0.10;;;0.10;;
26562;SDS011;14217;50.986;5.826;2024-02-26T01:52:14;0.40;;;0.40;;
26562;SDS011;14217;50.986;5.826;2024-02-26T01:57:17;0.65;;;0.10;;
26562;SDS011;14217;50.986;5.826;2024-02-26T02:02:19;0.10;;;0.10;;
26562;SDS011;14217;50.986;5.826;2024-02-26T02:07:22;0.10;;;0.10;;
26562;SDS011;14217;50.986;5.826;2024-02-26T02:12:24;0.65;;;0.20;;
26562;SDS011;14217;50.986;5.826;2024-02-26T02:17:27;0.55;;;0.38;;
26562;SDS011;14217;50.986;5.826;2024-02-26T02:22:30;0.95;;;0.20;;
26562;SDS011;14217;50.986;5.826;2024-02-26T02:27:33;0.77;;;0.20;;
26562;SDS011;14217;50.986;5.826;2024-02-26T02:32:37;0.52;;;0.28;;
26562;SDS011;14217;50.986;5.826;2024-02-26T02:37:41;0.38;;;0.10;;
26562;SDS011;14217;50.986;5.826;2024-02-26T02:42:43;0.35;;;0.25;;
26562;SDS011;14217;50.986;5.826;2024-02-26T02:47:45;0.15;;;0.15;;
26562;SDS011;14217;50.986;5.826;2024-02-26T02:52:47;0.45;;;0.20;;
26562;SDS011;14217;50.986;5.826;2024-02-26T02:57:51;0.20;;;0.20;;
26562;SDS011;14217;50.986;5.826;2024-02-26T03:02:53;0.15;;;0.05;;
26562;SDS011;14217;50.986;5.826;2024-02-26T03:07:55;0.32;;;0.20;;
26562;SDS011;14217;50.986;5.826;2024-02-26T03:12:57;0.20;;;0.10;;
26562;SDS011;14217;50.986;5.826;2024-02-26T03:17:59;0.22;;;0.13;;
26562;SDS011;14217;50.986;5.826;2024-02-26T03:23:02;0.10;;;0.10;;
26562;SDS011;14217;50.986;5.826;2024-02-26T03:28:04;0.95;;;0.50;;
26562;SDS011;14217;50.986;5.826;2024-02-26T03:33:07;0.20;;;0.10;;
26562;SDS011;14217;50.986;5.826;2024-02-26T03:38:09;0.20;;;0.20;;
26562;SDS011;14217;50.986;5.826;2024-02-26T03:43:11;0.10;;;0.10;;
26562;SDS011;14217;50.986;5.826;2024-02-26T03:48:14;0.25;;;0.20;;
26562;SDS011;14217;50.986;5.826;2024-02-26T03:53:16;0.08;;;0.08;;
26562;SDS011;14217;50.986;5.826;2024-02-26T03:58:18;0.22;;;0.13;;
26562;SDS011;14217;50.986;5.826;2024-02-26T04:03:20;0.08;;;0.08;;
26562;SDS011;14217;50.986;5.826;2024-02-26T04:08:22;0.10;;;0.10;;
26562;SDS011;14217;50.986;5.826;2024-02-26T04:13:25;0.20;;;0.20;;
26562;SDS011;14217;50.986;5.826;2024-02-26T04:18:27;0.10;;;0.10;;
26562;SDS011;14217;50.986;5.826;2024-02-26T04:23:30;1.27;;;0.10;;
26562;SDS011;14217;50.986;5.826;2024-02-26T04:28:32;0.68;;;0.20;;
26562;SDS011;14217;50.986;5.826;2024-02-26T04:33:34;0.15;;;0.10;;
26562;SDS011;14217;50.986;5.826;2024-02-26T04:38:36;0.10;;;0.10;;
26562;SDS011;14217;50.986;5.826;2024-02-26T04:43:38;0.10;;;0.10;;
26562;SDS011;14217;50.986;5.826;2024-02-26T04:48:43;0.17;;;0.13;;
26562;SDS011;14217;50.986;5.826;2024-02-26T04:53:47;0.60;;;0.10;;
26562;SDS011;14217;50.986;5.826;2024-02-26T04:58:49;0.40;;;0.10;;
26562;SDS011;14217;50.986;5.826;2024-02-26T05:03:51;0.98;;;0.30;;
26562;SDS011;14217;50.986;5.826;2024-02-26T05:08:53;0.20;;;0.10;;
26562;SDS011;14217;50.986;5.826;2024-02-26T05:13:55;0.20;;;0.20;;
26562;SDS011;14217;50.986;5.826;2024-02-26T05:18:57;0.65;;;0.32;;
26562;SDS011;14217;50.986;5.826;2024-02-26T05:24:00;0.85;;;0.10;;
26562;SDS011;14217;50.986;5.826;2024-02-26T05:29:02;0.25;;;0.20;;
26562;SDS011;14217;50.986;5.826;2024-02-26T05:34:04;1.50;;;0.40;;
26562;SDS011;14217;50.986;5.826;2024-02-26T05:39:10;2.15;;;0.40;;
26562;SDS011;14217;50.986;5.826;2024-02-26T05:44:20;0.75;;;0.25;;
26562;SDS011;14217;50.986;5.826;2024-02-26T05:49:22;0.13;;;0.13;;
26562;SDS011;14217;50.986;5.826;2024-02-26T05:54:24;0.32;;;0.20;;
26562;SDS011;14217;50.986;5.826;2024-02-26T05:59:26;2.05;;;0.30;;
26562;SDS011;14217;50.986;5.826;2024-02-26T06:04:28;0.73;;;0.25;;
26562;SDS011;14217;50.986;5.826;2024-02-26T06:09:31;0.63;;;0.30;;
26562;SDS011;14217;50.986;5.826;2024-02-26T06:14:33;1.05;;;0.55;;
26562;SDS011;14217;50.986;5.826;2024-02-26T06:19:35;0.80;;;0.40;;
26562;SDS011;14217;50.986;5.826;2024-02-26T06:24:37;3.85;;;0.90;;
26562;SDS011;14217;50.986;5.826;2024-02-26T06:29:39;0.85;;;0.40;;
26562;SDS011;14217;50.986;5.826;2024-02-26T06:34:42;6.22;;;0.52;;
26562;SDS011;14217;50.986;5.826;2024-02-26T06:39:44;1.23;;;0.85;;
26562;SDS011;14217;50.986;5.826;2024-02-26T06:44:46;0.22;;;0.22;;
26562;SDS011;14217;50.986;5.826;2024-02-26T06:49:49;1.55;;;0.35;;
26562;SDS011;14217;50.986;5.826;2024-02-26T06:54:51;1.55;;;0.38;;
26562;SDS011;14217;50.986;5.826;2024-02-26T06:59:54;1.63;;;0.30;;
26562;SDS011;14217;50.986;5.826;2024-02-26T07:04:56;0.10;;;0.10;;
26562;SDS011;14217;50.986;5.826;2024-02-26T07:09:59;0.20;;;0.20;;
26562;SDS011;14217;50.986;5.826;2024-02-26T07:15:05;2.47;;;0.50;;
26562;SDS011;14217;50.986;5.826;2024-02-26T07:20:09;0.28;;;0.28;;
26562;SDS011;14217;50.986;5.826;2024-02-26T07:25:12;0.50;;;0.50;;
26562;SDS011;14217;50.986;5.826;2024-02-26T07:30:15;0.47;;;0.30;;
26562;SDS011;14217;50.986;5.826;2024-02-26T07:35:18;0.30;;;0.28;;
26562;SDS011;14217;50.986;5.826;2024-02-26T07:40:20;0.20;;;0.20;;
26562;SDS011;14217;50.986;5.826;2024-02-26T07:45:22;1.83;;;0.32;;
26562;SDS011;14217;50.986;5.826;2024-02-26T07:50:24;0.70;;;0.30;;
26562;SDS011;14217;50.986;5.826;2024-02-26T07:55:27;0.52;;;0.30;;
26562;SDS011;14217;50.986;5.826;2024-02-26T08:00:28;0.20;;;0.20;;
26562;SDS011;14217;50.986;5.826;2024-02-26T08:05:31;2.00;;;0.68;;
26562;SDS011;14217;50.986;5.826;2024-02-26T08:10:33;0.45;;;0.30;;
26562;SDS011;14217;50.986;5.826;2024-02-26T08:15:35;0.43;;;0.28;;
26562;SDS011;14217;50.986;5.826;2024-02-26T08:20:40;0.63;;;0.40;;
26562;SDS011;14217;50.986;5.826;2024-02-26T08:25:43;0.68;;;0.30;;
26562;SDS011;14217;50.986;5.826;2024-02-26T08:30:45;0.30;;;0.30;;
26562;SDS011;14217;50.986;5.826;2024-02-26T08:35:47;0.20;;;0.20;;
26562;SDS011;14217;50.986;5.826;2024-02-26T08:40:49;1.48;;;0.47;;
26562;SDS011;14217;50.986;5.826;2024-02-26T08:45:51;0.30;;;0.30;;
26562;SDS011;14217;50.986;5.826;2024-02-26T08:50:53;0.30;;;0.30;;
26562;SDS011;14217;50.986;5.826;2024-02-26T08:55:55;1.38;;;0.70;;
26562;SDS011;14217;50.986;5.826;2024-02-26T09:00:57;0.55;;;0.38;;
26562;SDS011;14217;50.986;5.826;2024-02-26T09:05:59;2.80;;;0.45;;
26562;SDS011;14217;50.986;5.826;2024-02-26T09:11:02;1.15;;;1.02;;
26562;SDS011;14217;50.986;5.826;2024-02-26T09:16:05;1.38;;;0.40;;
26562;SDS011;14217;50.986;5.826;2024-02-26T09:21:07;2.65;;;0.50;;
26562;SDS011;14217;50.986;5.826;2024-02-26T09:26:10;0.63;;;0.20;;
26562;SDS011;14217;50.986;5.826;2024-02-26T09:31:12;3.28;;;0.22;;
26562;SDS011;14217;50.986;5.826;2024-02-26T09:36:14;1.00;;;0.45;;
26562;SDS011;14217;50.986;5.826;2024-02-26T09:41:16;0.60;;;0.30;;
26562;SDS011;14217;50.986;5.826;2024-02-26T09:46:18;0.10;;;0.10;;
26562;SDS011;14217;50.986;5.826;2024-02-26T09:51:24;2.63;;;0.43;;
26562;SDS011;14217;50.986;5.826;2024-02-26T09:56:27;0.40;;;0.30;;
26562;SDS011;14217;50.986;5.826;2024-02-26T10:01:31;0.10;;;0.10;;
26562;SDS011;14217;50.986;5.826;2024-02-26T10:06:36;1.00;;;0.35;;
26562;SDS011;14217;50.986;5.826;2024-02-26T10:11:38;1.33;;;0.30;;
26562;SDS011;14217;50.986;5.826;2024-02-26T10:16:44;0.95;;;0.20;;
26562;SDS011;14217;50.986;5.826;2024-02-26T10:21:47;0.10;;;0.10;;
26562;SDS011;14217;50.986;5.826;2024-02-26T10:26:49;0.28;;;0.25;;
26562;SDS011;14217;50.986;5.826;2024-02-26T10:31:51;0.80;;;0.38;;
26562;SDS011;14217;50.986;5.826;2024-02-26T10:36:54;0.73;;;0.20;;
26562;SDS011;14217;50.986;5.826;2024-02-26T10:41:56;0.20;;;0.17;;
26562;SDS011;14217;50.986;5.826;2024-02-26T10:46:58;0.60;;;0.43;;
26562;SDS011;14217;50.986;5.826;2024-02-26T10:52:00;0.17;;;0.17;;
26562;SDS011;14217;50.986;5.826;2024-02-26T10:57:03;0.40;;;0.10;;
26562;SDS011;14217;50.986;5.826;2024-02-26T11:02:07;0.15;;;0.15;;
26562;SDS011;14217;50.986;5.826;2024-02-26T11:07:11;0.50;;;0.38;;
26562;SDS011;14217;50.986;5.826;2024-02-26T11:12:14;0.30;;;0.30;;
26562;SDS011;14217;50.986;5.826;2024-02-26T11:17:17;0.52;;;0.10;;
26562;SDS011;14217;50.986;5.826;2024-02-26T11:22:21;0.20;;;0.20;;
26562;SDS011;14217;50.986;5.826;2024-02-26T11:27:35;0.20;;;0.20;;
26562;SDS011;14217;50.986;5.826;2024-02-26T11:32:43;0.35;;;0.30;;
26562;SDS011;14217;50.986;5.826;2024-02-26T11:37:56;0.35;;;0.20;;
26562;SDS011;14217;50.986;5.826;2024-02-26T11:42:59;0.20;;;0.20;;
26562;SDS011;14217;50.986;5.826;2024-02-26T11:48:01;0.20;;;0.20;;
26562;SDS011;14217;50.986;5.826;2024-02-26T11:53:19;0.10;;;0.10;;
26562;SDS011;14217;50.986;5.826;2024-02-26T11:58:21;0.35;;;0.32;;
26562;SDS011;14217;50.986;5.826;2024-02-26T12:03:24;0.30;;;0.20;;
26562;SDS011;14217;50.986;5.826;2024-02-26T12:08:26;0.50;;;0.10;;
26562;SDS011;14217;50.986;5.826;2024-02-26T12:13:29;0.05;;;0.03;;
26562;SDS011;14217;50.986;5.826;2024-02-26T12:18:32;0.20;;;0.20;;
26562;SDS011;14217;50.986;5.826;2024-02-26T12:23:36;0.32;;;0.20;;
26562;SDS011;14217;50.986;5.826;2024-02-26T12:28:38;1.20;;;0.30;;
26562;SDS011;14217;50.986;5.826;2024-02-26T12:33:42;0.22;;;0.22;;
26562;SDS011;14217;50.986;5.826;2024-02-26T12:38:45;0.13;;;0.10;;
26562;SDS011;14217;50.986;5.826;2024-02-26T12:43:47;0.82;;;0.10;;
26562;SDS011;14217;50.986;5.826;2024-02-26T12:48:51;0.20;;;0.20;;
26562;SDS011;14217;50.986;5.826;2024-02-26T12:53:53;0.20;;;0.20;;
26562;SDS011;14217;50.986;5.826;2024-02-26T12:58:57;0.10;;;0.10;;
26562;SDS011;14217;50.986;5.826;2024-02-26T13:04:00;1.75;;;0.40;;
26562;SDS011;14217;50.986;5.826;2024-02-26T13:09:08;0.40;;;0.40;;
26562;SDS011;14217;50.986;5.826;2024-02-26T13:14:20;0.40;;;0.40;;
26562;SDS011;14217;50.986;5.826;2024-02-26T13:19:22;0.35;;;0.35;;
26562;SDS011;14217;50.986;5.826;2024-02-26T13:24:24;0.80;;;0.50;;
26562;SDS011;14217;50.986;5.826;2024-02-26T13:29:27;0.20;;;0.20;;
26562;SDS011;14217;50.986;5.826;2024-02-26T13:34:29;0.40;;;0.30;;
26562;SDS011;14217;50.986;5.826;2024-02-26T13:39:32;1.25;;;0.50;;
26562;SDS011;14217;50.986;5.826;2024-02-26T13:44:37;0.22;;;0.22;;
26562;SDS011;14217;50.986;5.826;2024-02-26T13:49:41;0.40;;;0.32;;
26562;SDS011;14217;50.986;5.826;2024-02-26T13:54:43;0.60;;;0.40;;
26562;SDS011;14217;50.986;5.826;2024-02-26T13:59:46;0.82;;;0.50;;
26562;SDS011;14217;50.986;5.826;2024-02-26T14:04:48;0.70;;;0.55;;
26562;SDS011;14217;50.986;5.826;2024-02-26T14:09:50;0.85;;;0.30;;
26562;SDS011;14217;50.986;5.826;2024-02-26T14:14:53;0.57;;;0.57;;
26562;SDS011;14217;50.986;5.826;2024-02-26T14:19:57;0.93;;;0.75;;
26562;SDS011;14217;50.986;5.826;2024-02-26T14:24:59;1.92;;;1.00;;
26562;SDS011;14217;50.986;5.826;2024-02-26T14:30:01;0.80;;;0.50;;
26562;SDS011;14217;50.986;5.826;2024-02-26T14:35:05;1.17;;;0.47;;
26562;SDS011;14217;50.986;5.826;2024-02-26T14:40:12;0.38;;;0.38;;
26562;SDS011;14217;50.986;5.826;2024-02-26T14:45:14;0.40;;;0.40;;
26562;SDS011;14217;50.986;5.826;2024-02-26T14:50:18;1.55;;;0.63;;
26562;SDS011;14217;50.986;5.826;2024-02-26T14:55:20;0.70;;;0.60;;
26562;SDS011;14217;50.986;5.826;2024-02-26T15:00:22;1.02;;;0.77;;
26562;SDS011;14217;50.986;5.826;2024-02-26T15:05:24;0.60;;;0.50;;
26562;SDS011;14217;50.986;5.826;2024-02-26T15:10:26;0.65;;;0.50;;
26562;SDS011;14217;50.986;5.826;2024-02-26T15:15:30;0.95;;;0.50;;
26562;SDS011;14217;50.986;5.826;2024-02-26T15:20:32;1.35;;;0.68;;
26562;SDS011;14217;50.986;5.826;2024-02-26T15:25:34;0.40;;;0.40;;
26562;SDS011;14217;50.986;5.826;2024-02-26T15:30:36;0.82;;;0.43;;
26562;SDS011;14217;50.986;5.826;2024-02-26T15:35:40;0.73;;;0.55;;
26562;SDS011;14217;50.986;5.826;2024-02-26T15:40:44;0.47;;;0.40;;
26562;SDS011;14217;50.986;5.826;2024-02-26T15:45:48;0.43;;;0.35;;
26562;SDS011;14217;50.986;5.826;2024-02-26T15:50:50;0.40;;;0.40;;
26562;SDS011;14217;50.986;5.826;2024-02-26T15:55:52;0.60;;;0.38;;
26562;SDS011;14217;50.986;5.826;2024-02-26T16:00:54;0.68;;;0.50;;
26562;SDS011;14217;50.986;5.826;2024-02-26T16:06:01;0.40;;;0.40;;
26562;SDS011;14217;50.986;5.826;2024-02-26T16:11:04;1.35;;;0.73;;
26562;SDS011;14217;50.986;5.826;2024-02-26T16:16:08;0.88;;;0.40;;
26562;SDS011;14217;50.986;5.826;2024-02-26T16:21:15;0.50;;;0.50;;
26562;SDS011;14217;50.986;5.826;2024-02-26T16:26:17;0.50;;;0.50;;
26562;SDS011;14217;50.986;5.826;2024-02-26T16:31:19;0.40;;;0.40;;
26562;SDS011;14217;50.986;5.826;2024-02-26T16:36:21;0.45;;;0.45;;
26562;SDS011;14217;50.986;5.826;2024-02-26T16:41:23;0.50;;;0.50;;
26562;SDS011;14217;50.986;5.826;2024-02-26T16:46:26;1.83;;;0.50;;
26562;SDS011;14217;50.986;5.826;2024-02-26T16:51:28;0.80;;;0.75;;
26562;SDS011;14217;50.986;5.826;2024-02-26T16:56:30;0.52;;;0.52;;
26562;SDS011;14217;50.986;5.826;2024-02-26T17:01:32;0.65;;;0.65;;
26562;SDS011;14217;50.986;5.826;2024-02-26T17:06:34;0.40;;;0.40;;
26562;SDS011;14217;50.986;5.826;2024-02-26T17:11:36;0.65;;;0.43;;
26562;SDS011;14217;50.986;5.826;2024-02-26T17:16:40;1.48;;;0.50;;
26562;SDS011;14217;50.986;5.826;2024-02-26T17:21:42;0.40;;;0.40;;
26562;SDS011;14217;50.986;5.826;2024-02-26T17:26:44;0.68;;;0.68;;
26562;SDS011;14217;50.986;5.826;2024-02-26T17:31:46;0.77;;;0.65;;
26562;SDS011;14217;50.986;5.826;2024-02-26T17:36:49;0.73;;;0.47;;
26562;SDS011;14217;50.986;5.826;2024-02-26T17:41:52;0.55;;;0.50;;
26562;SDS011;14217;50.986;5.826;2024-02-26T17:46:54;0.30;;;0.30;;
26562;SDS011;14217;50.986;5.826;2024-02-26T17:51:56;1.02;;;0.63;;
26562;SDS011;14217;50.986;5.826;2024-02-26T17:56:58;0.80;;;0.40;;
26562;SDS011;14217;50.986;5.826;2024-02-26T18:02:01;1.13;;;1.00;;
26562;SDS011;14217;50.986;5.826;2024-02-26T18:07:02;0.45;;;0.40;;
26562;SDS011;14217;50.986;5.826;2024-02-26T18:12:06;6.63;;;0.52;;
26562;SDS011;14217;50.986;5.826;2024-02-26T18:17:08;0.52;;;0.40;;
26562;SDS011;14217;50.986;5.826;2024-02-26T18:22:10;0.47;;;0.47;;
26562;SDS011;14217;50.986;5.826;2024-02-26T18:27:12;0.52;;;0.50;;
26562;SDS011;14217;50.986;5.826;2024-02-26T18:32:14;0.43;;;0.43;;
26562;SDS011;14217;50.986;5.826;2024-02-26T18:37:19;0.55;;;0.40;;
26562;SDS011;14217;50.986;5.826;2024-02-26T18:42:21;0.57;;;0.40;;
26562;SDS011;14217;50.986;5.826;2024-02-26T18:47:24;0.40;;;0.40;;
26562;SDS011;14217;50.986;5.826;2024-02-26T18:52:26;0.57;;;0.40;;
26562;SDS011;14217;50.986;5.826;2024-02-26T18:57:28;0.30;;;0.30;;
26562;SDS011;14217;50.986;5.826;2024-02-26T19:02:33;0.98;;;0.52;;
26562;SDS011;14217;50.986;5.826;2024-02-26T19:07:36;1.20;;;0.60;;
26562;SDS011;14217;50.986;5.826;2024-02-26T19:12:38;1.38;;;0.65;;
26562;SDS011;14217;50.986;5.826;2024-02-26T19:17:40;4.53;;;0.60;;
26562;SDS011;14217;50.986;5.826;2024-02-26T19:22:42;0.98;;;0.43;;
26562;SDS011;14217;50.986;5.826;2024-02-26T19:27:45;0.40;;;0.40;;
26562;SDS011;14217;50.986;5.826;2024-02-26T19:32:46;0.52;;;0.40;;
26562;SDS011;14217;50.986;5.826;2024-02-26T19:37:49;2.47;;;1.02;;
26562;SDS011;14217;50.986;5.826;2024-02-26T19:42:51;0.60;;;0.40;;
26562;SDS011;14217;50.986;5.826;2024-02-26T19:47:53;0.50;;;0.50;;
26562;SDS011;14217;50.986;5.826;2024-02-26T19:52:55;0.60;;;0.50;;
26562;SDS011;14217;50.986;5.826;2024-02-26T19:57:58;0.30;;;0.30;;
26562;SDS011;14217;50.986;5.826;2024-02-26T20:03:02;0.70;;;0.60;;
26562;SDS011;14217;50.986;5.826;2024-02-26T20:08:05;0.45;;;0.43;;
26562;SDS011;14217;50.986;5.826;2024-02-26T20:13:07;0.35;;;0.35;;
26562;SDS011;14217;50.986;5.826;2024-02-26T20:18:10;1.35;;;0.47;;
26562;SDS011;14217;50.986;5.826;2024-02-26T20:23:12;0.50;;;0.50;;
26562;SDS011;14217;50.986;5.826;2024-02-26T20:28:14;2.03;;;0.50;;
26562;SDS011;14217;50.986;5.826;2024-02-26T20:33:16;0.38;;;0.38;;
26562;SDS011;14217;50.986;5.826;2024-02-26T20:38:18;0.55;;;0.30;;
26562;SDS011;14217;50.986;5.826;2024-02-26T20:43:20;0.43;;;0.43;;
26562;SDS011;14217;50.986;5.826;2024-02-26T20:48:22;0.60;;;0.38;;
26562;SDS011;14217;50.986;5.826;2024-02-26T20:53:26;0.30;;;0.30;;
26562;SDS011;14217;50.986;5.826;2024-02-26T20:58:28;0.50;;;0.40;;
26562;SDS011;14217;50.986;5.826;2024-02-26T21:03:30;0.40;;;0.40;;
26562;SDS011;14217;50.986;5.826;2024-02-26T21:08:32;0.43;;;0.43;;
26562;SDS011;14217;50.986;5.826;2024-02-26T21:13:38;0.52;;;0.52;;
26562;SDS011;14217;50.986;5.826;2024-02-26T21:18:42;0.68;;;0.52;;
26562;SDS011;14217;50.986;5.826;2024-02-26T21:23:45;0.60;;;0.60;;
26562;SDS011;14217;50.986;5.826;2024-02-26T21:28:47;0.60;;;0.30;;
26562;SDS011;14217;50.986;5.826;2024-02-26T21:33:49;0.98;;;0.40;;
26562;SDS011;14217;50.986;5.826;2024-02-26T21:38:51;0.50;;;0.38;;
26562;SDS011;14217;50.986;5.826;2024-02-26T21:43:53;0.40;;;0.40;;
26562;SDS011;14217;50.986;5.826;2024-02-26T21:48:55;0.90;;;0.60;;
26562;SDS011;14217;50.986;5.826;2024-02-26T21:53:57;0.68;;;0.63;;
26562;SDS011;14217;50.986;5.826;2024-02-26T21:59:00;1.33;;;0.60;;
26562;SDS011;14217;50.986;5.826;2024-02-26T22:04:02;2.00;;;0.55;;
26562;SDS011;14217;50.986;5.826;2024-02-26T22:09:05;2.80;;;0.68;;
26562;SDS011;14217;50.986;5.826;2024-02-26T22:14:09;1.85;;;0.80;;
26562;SDS011;14217;50.986;5.826;2024-02-26T22:19:11;0.50;;;0.50;;
26562;SDS011;14217;50.986;5.826;2024-02-26T22:24:15;1.88;;;0.80;;
26562;SDS011;14217;50.986;5.826;2024-02-26T22:29:18;0.82;;;0.50;;
26562;SDS011;14217;50.986;5.826;2024-02-26T22:34:20;0.82;;;0.70;;
26562;SDS011;14217;50.986;5.826;2024-02-26T22:39:22;1.63;;;0.63;;
26562;SDS011;14217;50.986;5.826;2024-02-26T22:44:24;1.27;;;0.77;;
26562;SDS011;14217;50.986;5.826;2024-02-26T22:49:26;0.93;;;0.93;;
26562;SDS011;14217;50.986;5.826;2024-02-26T22:54:30;1.20;;;0.90;;
26562;SDS011;14217;50.986;5.826;2024-02-26T22:59:33;2.42;;;0.80;;
26562;SDS011;14217;50.986;5.826;2024-02-26T23:04:36;1.52;;;1.02;;
26562;SDS011;14217;50.986;5.826;2024-02-26T23:09:38;2.38;;;1.10;;
26562;SDS011;14217;50.986;5.826;2024-02-26T23:14:41;1.55;;;1.35;;
26562;SDS011;14217;50.986;5.826;2024-02-26T23:19:43;2.30;;;1.40;;
26562;SDS011;14217;50.986;5.826;2024-02-26T23:24:45;3.15;;;1.05;;
26562;SDS011;14217;50.986;5.826;2024-02-26T23:29:47;1.70;;;0.82;;
26562;SDS011;14217;50.986;5.826;2024-02-26T23:34:49;2.95;;;1.17;;
26562;SDS011;14217;50.986;5.826;2024-02-26T23:39:52;5.53;;;1.67;;
26562;SDS011;14217;50.986;5.826;2024-02-26T23:44:54;3.28;;;1.25;;
26562;SDS011;14217;50.986;5.826;2024-02-26T23:49:56;1.30;;;0.95;;
26562;SDS011;14217;50.986;5.826;2024-02-26T23:54:58;2.05;;;1.27;;
